Latest Coastal Weather Observations for Roebourne Airport

IDW60701

Issued at 3:15 am WST Sunday 26 October 2014 (issued every 10 minutes, with the page automatically refreshed every 10 minutes)

About coastal observations | Map of coastal stations | Coastal observations for WA | Marine services | Other Formats
Station Details ID: 004090 Name: ROEBOURNE AERO Lat: -20.76 Lon: 117.16 Height: 10.7 m
Data from the previous 72 hours. | See also: Recent months at Roebourne Airport
Date/Time
WST
Temp

°C
Wind Pressure Rain
since 9am
mm
Weather Cloud Vis
km
Sea
Height
m
Swell
Dir
 
Speed
knots
Gust
knots
hPa Trend Height
m
Period
s
Dir
26/03:00am 26.6 SW 7 8 1011.4 - 0.0 - - - - - - -
26/02:30am 25.2 SSW 6 7 1011.6 - 0.0 - - - - - - -
26/02:00am 27.9 SSW 6 7 1011.6 - 0.0 - - - - - - -
26/01:30am 28.1 SW 6 7 1011.7 - 0.0 - - - - - - -
26/01:00am 28.9 SW 6 7 1011.7 - 0.0 - - - - - - -
26/12:30am 29.0 SW 7 8 1012.0 - 0.0 - - - - - - -
26/12:00am 30.0 SW 7 8 1012.2 - 0.0 - - - - - - -
 
Date/Time
WST
Temp

°C
Wind Pressure Rain
since 9am
mm
Weather Cloud Vis
km
Sea
Height
m
Swell
Dir
 
Speed
knots
Gust
knots
hPa Trend Height
m
Period
s
Dir
25/11:30pm 30.8 SW 8 10 1012.4 - 0.0 - - - - - - -
25/11:00pm 31.8 WSW 8 11 1012.5 - 0.0 - - - - - - -
25/10:30pm 32.5 SW 9 11 1012.6 - 0.0 - - - - - - -
25/10:00pm 33.3 SW 11 14 1012.4 - 0.0 - - - - - - -
25/09:30pm 33.8 SW 11 14 1012.3 - 0.0 - - - - - - -
25/09:00pm 34.3 SW 13 16 1012.1 - 0.0 - - - - - - -
25/08:30pm 33.9 WSW 12 15 1012.0 - 0.0 - - - - - - -
25/08:00pm 34.6 W 13 18 1011.8 - 0.0 - - - - - - -
25/07:30pm 34.5 W 12 17 1011.5 - 0.0 - - - - - - -
25/07:00pm 34.5 W 14 20 1011.1 - 0.0 - - - - - - -
25/06:30pm 35.1 W 17 23 1010.7 - 0.0 - - - - - - -
25/06:00pm 36.3 W 16 21 1010.4 - 0.0 - - - - - - -
25/05:30pm 36.9 W 18 24 1010.1 - 0.0 - - - - - - -
25/05:00pm 38.9 W 18 25 1009.9 - 0.0 - - - - - - -
25/04:30pm 40.1 W 13 21 1009.7 - 0.0 - - - - - - -
25/04:00pm 40.4 WNW 18 22 1009.7 - 0.0 - - - - - - -
25/03:30pm 40.8 NW 19 23 1009.7 - 0.0 - - - - - - -
25/03:00pm 42.0 WNW 18 24 1009.9 - 0.0 - - - - - - -
25/02:45pm 41.7 WNW 16 25 1010.0 - 0.0 - - - - - - -
25/02:30pm 42.1 WNW 10 15 1010.3 - 0.0 - - - - - - -
25/02:00pm 41.7 W 10 17 1010.8 - 0.0 - - - - - - -
25/01:30pm 42.8 NW 5 6 1011.1 - 0.0 - - - - - - -
25/01:00pm 42.2 WSW 7 12 1011.5 - 0.0 - - - - - - -
25/12:30pm 41.8 WSW 13 21 1011.9 - 0.0 - - - - - - -
25/12:00pm 41.5 WSW 7 11 1012.3 - 0.0 - - - - - - -
25/11:30am 41.5 SW 13 18 1012.7 - 0.0 - - - - - - -
25/11:00am 40.5 S 10 15 1013.0 - 0.0 - - - - - - -
25/10:30am 39.2 SW 9 16 1013.4 - 0.0 - - - - - - -
25/10:00am 38.8 S 13 19 1013.8 - 0.0 - - - - - - -
25/09:30am 37.5 S 9 13 1013.9 - 0.0 - - - - - - -
25/09:00am 36.5 SSW 8 11 1014.1 - 0.0 - - - - - - -
25/08:30am 34.5 SSW 8 11 1014.1 - 0.0 - - - - - - -
25/08:00am 32.8 SW 7 9 1014.0 - 0.0 - - - - - - -
25/07:30am 31.2 SW 7 9 1013.8 - 0.0 - - - - - - -
25/07:00am 29.3 WSW 5 6 1013.5 - 0.0 - - - - - - -
25/06:30am 27.3 SW 7 8 1013.2 - 0.0 - - - - - - -
25/06:00am 23.6 SW 6 7 1012.9 - 0.0 - - - - - - -
25/05:30am 25.5 SW 7 9 1012.6 - 0.0 - - - - - - -
25/05:00am 25.8 WSW 8 9 1012.4 - 0.0 - - - - - - -
25/04:30am 23.5 SW 5 6 1012.2 - 0.0 - - - - - - -
25/04:00am 26.2 SW 7 8 1011.7 - 0.0 - - - - - - -
25/03:30am 26.0 SW 7 8 1011.6 - 0.0 - - - - - - -
25/03:00am 27.3 WSW 7 8 1011.3 - 0.0 - - - - - - -
25/02:30am 27.3 WSW 7 9 1011.3 - 0.0 - - - - - - -
25/02:00am 27.5 SW 7 9 1011.1 - 0.0 - - - - - - -
25/01:30am 27.3 WSW 7 9 1011.1 - 0.0 - - - - - - -
25/01:00am 28.4 WSW 9 11 1011.2 - 0.0 - - - - - - -
25/12:30am 28.2 WSW 9 12 1011.4 - 0.0 - - - - - - -
25/12:00am 27.9 WSW 8 11 1011.6 - 0.0 - - - - - - -
 
Date/Time
WST
Temp

°C
Wind Pressure Rain
since 9am
mm
Weather Cloud Vis
km
Sea
Height
m
Swell
Dir
 
Speed
knots
Gust
knots
hPa Trend Height
m
Period
s
Dir
24/11:30pm 26.9 W 6 7 1011.8 - 0.0 - - - - - - -
24/11:00pm 27.4 W 10 12 1011.8 - 0.0 - - - - - - -
24/10:30pm 28.7 W 9 11 1011.8 - 0.0 - - - - - - -
24/10:00pm 28.8 W 9 13 1011.6 - 0.0 - - - - - - -
24/09:30pm 30.1 W 10 14 1011.4 - 0.0 - - - - - - -
24/09:00pm 29.1 W 9 11 1011.2 - 0.0 - - - - - - -
24/08:30pm 29.4 W 11 15 1010.7 - 0.0 - - - - - - -
24/08:00pm 30.1 W 13 17 1010.3 - 0.0 - - - - - - -
24/07:30pm 30.8 W 13 16 1009.8 - 0.0 - - - - - - -
24/07:00pm 31.4 WNW 13 15 1009.4 - 0.0 - - - - - - -
24/06:30pm 33.2 WNW 13 17 1008.9 - 0.0 - - - - - - -
24/06:00pm 34.3 WNW 15 17 1008.5 - 0.0 - - - - - - -
24/05:30pm 35.5 WNW 15 19 1008.3 - 0.0 - - - - - - -
24/05:00pm 36.6 WNW 17 21 1008.0 - 0.0 - - - - - - -
24/04:30pm 38.7 WNW 17 21 1007.9 - 0.0 - - - - - - -
24/04:00pm 39.0 NW 17 21 1008.0 - 0.0 - - - - - - -
24/03:30pm 39.3 WNW 19 24 1008.2 - 0.0 - - - - - - -
24/03:00pm 40.2 NW 17 21 1008.4 - 0.0 - - - - - - -
24/02:30pm 40.1 NW 17 21 1008.7 - 0.0 - - - - - - -
24/02:00pm 40.1 NW 15 19 1009.0 - 0.0 - - - - - - -
24/01:30pm 39.9 NNW 15 19 1009.3 - 0.0 - - - - - - -
24/01:00pm 39.0 NNW 16 19 1009.8 - 0.0 - - - - - - -
24/12:30pm 40.9 N 15 19 1010.0 - 0.0 - - - - - - -
24/12:00pm 41.1 N 13 16 1010.2 - 0.0 - - - - - - -
24/11:30am 41.3 NNW 9 13 1010.5 - 0.0 - - - - - - -
24/11:00am 39.9 N 13 16 1010.8 - 0.0 - - - - - - -
24/10:30am 40.2 ESE 5 8 1011.1 - 0.0 - - - - - - -
24/10:00am 39.8 SSE 5 8 1011.3 - 0.0 - - - - - - -
24/09:30am 38.8 SSW 7 11 1011.5 - 0.0 - - - - - - -
24/09:00am 37.4 S 7 11 1011.7 - 0.0 - - - - - - -
24/08:30am 36.6 S 7 10 1011.6 - 0.0 - - - - - - -
24/08:00am 34.7 SSW 7 9 1011.4 - 0.0 - - - - - - -
24/07:30am 32.1 SW 7 9 1011.2 - 0.0 - - - - - - -
24/07:00am 29.8 WSW 4 5 1011.2 - 0.0 - - - - - - -
24/06:30am 27.0 W 3 5 1011.2 - 0.0 - - - - - - -
24/06:00am 26.7 SW 7 9 1010.8 - 0.0 - - - - - - -
24/05:30am 26.7 SW 9 11 1010.6 - 0.0 - - - - - - -
24/05:00am 26.9 SW 10 12 1010.4 - 0.0 - - - - - - -
24/04:30am 26.6 SW 10 11 1010.2 - 0.0 - - - - - - -
24/04:00am 27.0 SW 10 11 1010.2 - 0.0 - - - - - - -
24/03:30am 26.6 SW 8 9 1010.1 - 0.0 - - - - - - -
24/03:00am 27.7 SW 9 10 1009.9 - 0.0 - - - - - - -
24/02:30am 26.9 SW 8 9 1010.1 - 0.0 - - - - - - -
24/02:00am 26.0 SW 8 9 1010.4 - 0.0 - - - - - - -
24/01:30am 26.7 SW 6 7 1010.5 - 0.0 - - - - - - -
24/01:00am 27.7 SW 9 11 1010.6 - 0.0 - - - - - - -
24/12:30am 27.3 WSW 8 10 1010.9 - 0.0 - - - - - - -
24/12:00am 27.5 WSW 7 9 1011.1 - 0.0 - - - - - - -
 
Date/Time
WST
Temp

°C
Wind Pressure Rain
since 9am
mm
Weather Cloud Vis
km
Sea
Height
m
Swell
Dir
 
Speed
knots
Gust
knots
hPa Trend Height
m
Period
s
Dir
23/11:30pm 27.9 SW 9 11 1011.1 - 0.0 - - - - - - -
23/11:00pm 28.7 WSW 10 13 1011.2 - 0.0 - - - - - - -
23/10:30pm 29.4 WSW 13 16 1011.1 - 0.0 - - - - - - -
23/10:00pm 29.6 WSW 12 15 1011.2 - 0.0 - - - - - - -
23/09:30pm 29.9 WSW 13 15 1011.1 - 0.0 - - - - - - -
23/09:00pm 30.3 WSW 12 15 1010.9 - 0.0 - - - - - - -
23/08:30pm 30.0 W 12 15 1010.7 - 0.0 - - - - - - -
23/08:00pm 29.8 W 13 16 1010.4 - 0.0 - - - - - - -
23/07:30pm 29.9 W 15 19 1010.2 - 0.0 - - - - - - -
23/07:00pm 30.3 W 15 19 1009.8 - 0.0 - - - - - - -
23/06:30pm 31.2 WNW 15 20 1009.4 - 0.0 - - - - - - -
23/06:00pm 32.2 WNW 15 19 1009.2 - 0.0 - - - - - - -
23/05:30pm 33.2 WNW 16 20 1008.9 - 0.0 - - - - - - -
23/05:00pm 34.2 WNW 18 22 1008.6 - 0.0 - - - - - - -
23/04:30pm 36.1 WNW 19 23 1008.6 - 0.0 - - - - - - -
23/04:00pm 37.3 WNW 19 23 1008.7 - 0.0 - - - - - - -
23/03:30pm 38.6 NW 17 22 1008.8 - 0.0 - - - - - - -
23/03:00pm 39.2 WNW 18 21 1008.9 - 0.0 - - - - - - -
23/02:30pm 40.3 W 15 25 1008.9 - 0.0 - - - - - - -
23/02:00pm 41.1 W 10 15 1009.4 - 0.0 - - - - - - -
23/01:30pm 40.8 SSW 9 16 1009.7 - 0.0 - - - - - - -
23/01:00pm 41.1 S 7 17 1010.2 - 0.0 - - - - - - -
23/12:30pm 39.5 SW 8 11 1010.8 - 0.0 - - - - - - -
23/12:00pm 39.2 SSW 3 - 1011.2 - - - - - - - - -
23/11:30am 39.3 SSW 11 17 1011.6 - 0.0 - - - - - - -
23/11:00am 38.9 SSW 8 12 1011.9 - 0.0 - - - - - - -
23/10:30am 37.4 SSW 9 13 1012.3 - 0.0 - - - - - - -
23/10:00am 37.9 S 7 11 1012.5 - 0.0 - - - - - - -
23/09:30am 36.1 S 8 12 1012.7 - 0.0 - - - - - - -
23/09:00am 35.3 S 9 12 1012.6 - 0.0 - - - - - - -
23/08:30am 33.8 SSW 11 15 1012.6 - 0.0 - - - - - - -
23/08:00am 32.7 S 11 13 1012.5 - 0.0 - - - - - - -
23/07:30am 31.0 SW 9 13 1012.3 - 0.0 - - - - - - -
23/07:00am 29.3 SW 10 13 1012.1 - 0.0 - - - - - - -
23/06:30am 27.4 WSW 8 10 1011.9 - 0.0 - - - - - - -
23/06:00am 26.7 WSW 9 11 1011.3 - 0.0 - - - - - - -
23/05:30am 27.0 SW 8 10 1011.0 - 0.0 - - - - - - -
23/05:00am 27.7 SW 10 13 1010.8 - 0.0 - - - - - - -
23/04:30am 28.0 SW 10 13 1010.6 - 0.0 - - - - - - -
23/04:00am 28.1 SW 10 12 1010.4 - 0.0 - - - - - - -
23/03:30am 28.6 SW 11 14 1010.4 - 0.0 - - - - - - -

Other Formats:

Comma delimited format used in spreadsheet applications
http://www.bom.gov.au/fwo/IDW60701/IDW60701.94308.axf

JavaScript Object Notation format (JSON) in row-major order
http://www.bom.gov.au/fwo/IDW60701/IDW60701.94308.json